sensor_id;sensor_type;location;lat;lon;timestamp;temperature;humidity
10678;DHT22;5387;48.722;9.110;2023-07-24T00:02:24;19.00;99.90
10678;DHT22;5387;48.722;9.110;2023-07-24T00:04:50;19.00;99.90
10678;DHT22;5387;48.722;9.110;2023-07-24T00:07:17;19.00;99.90
10678;DHT22;5387;48.722;9.110;2023-07-24T00:09:46;18.90;99.90
10678;DHT22;5387;48.722;9.110;2023-07-24T00:12:13;19.00;99.90
10678;DHT22;5387;48.722;9.110;2023-07-24T00:14:40;19.00;99.90
10678;DHT22;5387;48.722;9.110;2023-07-24T00:17:07;19.00;99.90
10678;DHT22;5387;48.722;9.110;2023-07-24T00:19:33;18.90;99.90
10678;DHT22;5387;48.722;9.110;2023-07-24T00:22:00;18.40;99.90
10678;DHT22;5387;48.722;9.110;2023-07-24T00:24:27;18.00;99.90
10678;DHT22;5387;48.722;9.110;2023-07-24T00:26:55;17.50;99.90
10678;DHT22;5387;48.722;9.110;2023-07-24T00:29:22;17.10;99.90
10678;DHT22;5387;48.722;9.110;2023-07-24T00:31:49;17.10;99.90
10678;DHT22;5387;48.722;9.110;2023-07-24T00:34:15;17.00;99.90
10678;DHT22;5387;48.722;9.110;2023-07-24T00:36:42;16.90;99.90
10678;DHT22;5387;48.722;9.110;2023-07-24T00:39:09;16.90;99.90
10678;DHT22;5387;48.722;9.110;2023-07-24T00:41:36;16.80;99.90
10678;DHT22;5387;48.722;9.110;2023-07-24T00:44:04;16.70;99.90
10678;DHT22;5387;48.722;9.110;2023-07-24T00:46:31;16.80;99.90
10678;DHT22;5387;48.722;9.110;2023-07-24T00:48:59;16.80;99.90
10678;DHT22;5387;48.722;9.110;2023-07-24T00:51:27;16.80;99.90
10678;DHT22;5387;48.722;9.110;2023-07-24T00:53:54;16.80;99.90
10678;DHT22;5387;48.722;9.110;2023-07-24T00:56:21;16.90;99.90
10678;DHT22;5387;48.722;9.110;2023-07-24T00:58:48;17.10;99.90
10678;DHT22;5387;48.722;9.110;2023-07-24T01:01:17;17.00;99.90
10678;DHT22;5387;48.722;9.110;2023-07-24T01:03:44;17.00;99.90
10678;DHT22;5387;48.722;9.110;2023-07-24T01:06:11;16.90;99.90
10678;DHT22;5387;48.722;9.110;2023-07-24T01:08:38;16.90;99.90
10678;DHT22;5387;48.722;9.110;2023-07-24T01:11:12;16.90;99.90
10678;DHT22;5387;48.722;9.110;2023-07-24T01:13:45;17.00;99.90
10678;DHT22;5387;48.722;9.110;2023-07-24T01:16:19;17.00;99.90
10678;DHT22;5387;48.722;9.110;2023-07-24T01:18:49;17.00;99.90
10678;DHT22;5387;48.722;9.110;2023-07-24T01:21:21;16.90;99.90
10678;DHT22;5387;48.722;9.110;2023-07-24T01:23:58;16.90;99.90
10678;DHT22;5387;48.722;9.110;2023-07-24T01:26:26;16.80;99.90
10678;DHT22;5387;48.722;9.110;2023-07-24T01:28:53;16.90;99.90
10678;DHT22;5387;48.722;9.110;2023-07-24T01:31:20;16.80;99.90
10678;DHT22;5387;48.722;9.110;2023-07-24T01:33:47;16.80;99.90
10678;DHT22;5387;48.722;9.110;2023-07-24T01:36:14;16.80;99.90
10678;DHT22;5387;48.722;9.110;2023-07-24T01:38:42;16.80;99.90
10678;DHT22;5387;48.722;9.110;2023-07-24T01:41:09;16.70;99.90
10678;DHT22;5387;48.722;9.110;2023-07-24T01:43:37;16.70;99.90
10678;DHT22;5387;48.722;9.110;2023-07-24T01:46:04;16.60;99.90
10678;DHT22;5387;48.722;9.110;2023-07-24T01:48:31;16.70;99.90
10678;DHT22;5387;48.722;9.110;2023-07-24T01:50:58;16.70;99.90
10678;DHT22;5387;48.722;9.110;2023-07-24T01:53:24;16.70;99.90
10678;DHT22;5387;48.722;9.110;2023-07-24T01:55:51;16.70;99.90
10678;DHT22;5387;48.722;9.110;2023-07-24T01:58:18;16.70;99.90
10678;DHT22;5387;48.722;9.110;2023-07-24T02:00:46;16.60;99.90
10678;DHT22;5387;48.722;9.110;2023-07-24T02:03:13;16.60;99.90
10678;DHT22;5387;48.722;9.110;2023-07-24T02:05:40;16.60;99.90
10678;DHT22;5387;48.722;9.110;2023-07-24T02:08:07;16.60;99.90
10678;DHT22;5387;48.722;9.110;2023-07-24T02:10:36;16.70;99.90
10678;DHT22;5387;48.722;9.110;2023-07-24T02:13:03;16.70;99.90
10678;DHT22;5387;48.722;9.110;2023-07-24T02:15:32;16.80;99.90
10678;DHT22;5387;48.722;9.110;2023-07-24T02:18:01;16.90;99.90
10678;DHT22;5387;48.722;9.110;2023-07-24T02:20:28;16.90;99.90
10678;DHT22;5387;48.722;9.110;2023-07-24T02:22:55;16.90;99.90
10678;DHT22;5387;48.722;9.110;2023-07-24T02:25:21;16.90;99.90
10678;DHT22;5387;48.722;9.110;2023-07-24T02:27:48;16.90;99.90
10678;DHT22;5387;48.722;9.110;2023-07-24T02:30:15;16.90;99.90
10678;DHT22;5387;48.722;9.110;2023-07-24T02:32:42;16.90;99.90
10678;DHT22;5387;48.722;9.110;2023-07-24T02:35:10;16.80;99.90
10678;DHT22;5387;48.722;9.110;2023-07-24T02:37:36;16.80;99.90
10678;DHT22;5387;48.722;9.110;2023-07-24T02:40:04;16.80;99.90
10678;DHT22;5387;48.722;9.110;2023-07-24T02:42:31;16.80;99.90
10678;DHT22;5387;48.722;9.110;2023-07-24T02:44:58;16.90;99.90
10678;DHT22;5387;48.722;9.110;2023-07-24T02:47:24;16.70;99.90
10678;DHT22;5387;48.722;9.110;2023-07-24T02:49:51;16.70;99.90
10678;DHT22;5387;48.722;9.110;2023-07-24T02:52:19;16.50;99.90
10678;DHT22;5387;48.722;9.110;2023-07-24T02:54:46;16.60;99.90
10678;DHT22;5387;48.722;9.110;2023-07-24T02:57:13;16.60;99.90
10678;DHT22;5387;48.722;9.110;2023-07-24T02:59:39;16.50;99.90
10678;DHT22;5387;48.722;9.110;2023-07-24T03:02:06;16.50;99.90
10678;DHT22;5387;48.722;9.110;2023-07-24T03:04:33;16.40;99.90
10678;DHT22;5387;48.722;9.110;2023-07-24T03:07:00;16.40;99.90
10678;DHT22;5387;48.722;9.110;2023-07-24T03:09:28;16.20;99.90
10678;DHT22;5387;48.722;9.110;2023-07-24T03:11:55;16.20;99.90
10678;DHT22;5387;48.722;9.110;2023-07-24T03:14:21;16.20;99.90
10678;DHT22;5387;48.722;9.110;2023-07-24T03:16:48;16.10;99.90
10678;DHT22;5387;48.722;9.110;2023-07-24T03:19:15;16.20;99.90
10678;DHT22;5387;48.722;9.110;2023-07-24T03:21:43;16.10;99.90
10678;DHT22;5387;48.722;9.110;2023-07-24T03:24:09;16.00;99.90
10678;DHT22;5387;48.722;9.110;2023-07-24T03:26:37;16.00;99.90
10678;DHT22;5387;48.722;9.110;2023-07-24T03:29:05;15.80;99.90
10678;DHT22;5387;48.722;9.110;2023-07-24T03:31:32;15.90;99.90
10678;DHT22;5387;48.722;9.110;2023-07-24T03:33:59;15.80;99.90
10678;DHT22;5387;48.722;9.110;2023-07-24T03:36:25;15.80;99.90
10678;DHT22;5387;48.722;9.110;2023-07-24T03:38:52;16.00;99.90
10678;DHT22;5387;48.722;9.110;2023-07-24T03:41:19;16.10;99.90
10678;DHT22;5387;48.722;9.110;2023-07-24T03:43:47;16.00;99.90
10678;DHT22;5387;48.722;9.110;2023-07-24T03:46:14;16.00;99.90
10678;DHT22;5387;48.722;9.110;2023-07-24T03:48:40;16.20;99.90
10678;DHT22;5387;48.722;9.110;2023-07-24T03:51:08;16.30;99.90
10678;DHT22;5387;48.722;9.110;2023-07-24T03:53:35;16.40;99.90
10678;DHT22;5387;48.722;9.110;2023-07-24T03:56:02;16.50;99.90
10678;DHT22;5387;48.722;9.110;2023-07-24T03:58:28;16.60;99.90
10678;DHT22;5387;48.722;9.110;2023-07-24T04:00:56;16.70;99.90
10678;DHT22;5387;48.722;9.110;2023-07-24T04:03:23;16.70;99.90
10678;DHT22;5387;48.722;9.110;2023-07-24T04:05:50;16.70;99.90
10678;DHT22;5387;48.722;9.110;2023-07-24T04:08:17;16.70;99.90
10678;DHT22;5387;48.722;9.110;2023-07-24T04:10:44;16.80;99.90
10678;DHT22;5387;48.722;9.110;2023-07-24T04:13:10;17.00;99.90
10678;DHT22;5387;48.722;9.110;2023-07-24T04:15:37;16.90;99.90
10678;DHT22;5387;48.722;9.110;2023-07-24T04:18:06;16.90;99.90
10678;DHT22;5387;48.722;9.110;2023-07-24T04:20:33;17.00;99.90
10678;DHT22;5387;48.722;9.110;2023-07-24T04:22:59;16.90;99.90
10678;DHT22;5387;48.722;9.110;2023-07-24T04:25:26;17.00;99.90
10678;DHT22;5387;48.722;9.110;2023-07-24T04:27:53;17.00;99.90
10678;DHT22;5387;48.722;9.110;2023-07-24T04:30:20;17.10;99.90
10678;DHT22;5387;48.722;9.110;2023-07-24T04:32:47;17.10;99.90
10678;DHT22;5387;48.722;9.110;2023-07-24T04:35:16;17.10;99.90
10678;DHT22;5387;48.722;9.110;2023-07-24T04:37:43;17.20;99.90
10678;DHT22;5387;48.722;9.110;2023-07-24T04:40:11;17.40;99.90
10678;DHT22;5387;48.722;9.110;2023-07-24T04:42:38;17.40;99.90
10678;DHT22;5387;48.722;9.110;2023-07-24T04:45:05;17.60;99.90
10678;DHT22;5387;48.722;9.110;2023-07-24T04:47:32;17.60;99.90
10678;DHT22;5387;48.722;9.110;2023-07-24T04:49:59;17.70;99.90
10678;DHT22;5387;48.722;9.110;2023-07-24T04:52:27;17.90;99.90
10678;DHT22;5387;48.722;9.110;2023-07-24T04:54:54;17.90;99.90
10678;DHT22;5387;48.722;9.110;2023-07-24T04:57:20;17.90;99.90
10678;DHT22;5387;48.722;9.110;2023-07-24T04:59:47;17.90;99.90
10678;DHT22;5387;48.722;9.110;2023-07-24T05:02:14;18.00;99.90
10678;DHT22;5387;48.722;9.110;2023-07-24T05:04:41;18.20;99.90
10678;DHT22;5387;48.722;9.110;2023-07-24T05:07:08;18.20;99.90
10678;DHT22;5387;48.722;9.110;2023-07-24T05:09:36;18.30;99.90
10678;DHT22;5387;48.722;9.110;2023-07-24T05:12:03;18.50;99.90
10678;DHT22;5387;48.722;9.110;2023-07-24T05:14:30;18.50;99.90
10678;DHT22;5387;48.722;9.110;2023-07-24T05:16:57;18.60;99.90
10678;DHT22;5387;48.722;9.110;2023-07-24T05:19:23;18.40;99.90
10678;DHT22;5387;48.722;9.110;2023-07-24T05:21:50;18.60;99.90
10678;DHT22;5387;48.722;9.110;2023-07-24T05:24:17;18.60;99.90
10678;DHT22;5387;48.722;9.110;2023-07-24T05:26:45;18.50;99.90
10678;DHT22;5387;48.722;9.110;2023-07-24T05:29:12;18.60;99.90
10678;DHT22;5387;48.722;9.110;2023-07-24T05:31:39;18.60;99.90
10678;DHT22;5387;48.722;9.110;2023-07-24T05:34:05;18.60;99.90
10678;DHT22;5387;48.722;9.110;2023-07-24T05:36:32;18.70;99.90
10678;DHT22;5387;48.722;9.110;2023-07-24T05:38:59;18.70;99.90
10678;DHT22;5387;48.722;9.110;2023-07-24T05:41:26;18.70;99.90
10678;DHT22;5387;48.722;9.110;2023-07-24T05:43:54;18.70;99.90
10678;DHT22;5387;48.722;9.110;2023-07-24T05:46:21;18.70;99.90
10678;DHT22;5387;48.722;9.110;2023-07-24T05:48:48;18.70;99.90
10678;DHT22;5387;48.722;9.110;2023-07-24T05:51:14;18.70;99.90
10678;DHT22;5387;48.722;9.110;2023-07-24T05:53:41;18.60;99.90
10678;DHT22;5387;48.722;9.110;2023-07-24T05:56:08;18.90;99.90
10678;DHT22;5387;48.722;9.110;2023-07-24T05:58:35;18.70;99.90
10678;DHT22;5387;48.722;9.110;2023-07-24T06:01:03;18.90;99.90
10678;DHT22;5387;48.722;9.110;2023-07-24T06:03:30;18.80;99.90
10678;DHT22;5387;48.722;9.110;2023-07-24T06:05:56;18.80;99.90
10678;DHT22;5387;48.722;9.110;2023-07-24T06:08:23;19.00;99.90
10678;DHT22;5387;48.722;9.110;2023-07-24T06:10:50;19.20;99.90
10678;DHT22;5387;48.722;9.110;2023-07-24T06:13:18;19.20;99.90
10678;DHT22;5387;48.722;9.110;2023-07-24T06:15:46;19.20;99.90
10678;DHT22;5387;48.722;9.110;2023-07-24T06:18:15;19.30;99.90
10678;DHT22;5387;48.722;9.110;2023-07-24T06:20:41;19.40;99.90
10678;DHT22;5387;48.722;9.110;2023-07-24T06:23:08;19.40;99.90
10678;DHT22;5387;48.722;9.110;2023-07-24T06:25:35;19.50;99.90
10678;DHT22;5387;48.722;9.110;2023-07-24T06:28:02;19.50;99.90
10678;DHT22;5387;48.722;9.110;2023-07-24T06:30:29;19.50;99.90
10678;DHT22;5387;48.722;9.110;2023-07-24T06:32:55;19.50;99.90
10678;DHT22;5387;48.722;9.110;2023-07-24T06:35:23;19.60;99.90
10678;DHT22;5387;48.722;9.110;2023-07-24T06:37:50;19.70;99.90
10678;DHT22;5387;48.722;9.110;2023-07-24T06:40:17;19.70;99.90
10678;DHT22;5387;48.722;9.110;2023-07-24T06:42:44;19.80;99.90
10678;DHT22;5387;48.722;9.110;2023-07-24T06:45:11;19.90;99.90
10678;DHT22;5387;48.722;9.110;2023-07-24T06:47:38;20.00;99.90
10678;DHT22;5387;48.722;9.110;2023-07-24T06:50:06;20.00;99.90
10678;DHT22;5387;48.722;9.110;2023-07-24T06:52:34;20.00;99.90
10678;DHT22;5387;48.722;9.110;2023-07-24T06:55:01;19.90;99.90
10678;DHT22;5387;48.722;9.110;2023-07-24T06:57:28;20.00;99.90
10678;DHT22;5387;48.722;9.110;2023-07-24T06:59:55;20.00;99.90
10678;DHT22;5387;48.722;9.110;2023-07-24T07:02:22;20.00;99.90
10678;DHT22;5387;48.722;9.110;2023-07-24T07:04:48;20.00;99.90
10678;DHT22;5387;48.722;9.110;2023-07-24T07:07:15;20.10;99.90
10678;DHT22;5387;48.722;9.110;2023-07-24T07:09:43;20.20;99.90
10678;DHT22;5387;48.722;9.110;2023-07-24T07:12:10;20.20;99.90
10678;DHT22;5387;48.722;9.110;2023-07-24T07:14:37;20.30;99.90
10678;DHT22;5387;48.722;9.110;2023-07-24T07:17:04;20.30;99.90
10678;DHT22;5387;48.722;9.110;2023-07-24T07:19:30;20.50;99.90
10678;DHT22;5387;48.722;9.110;2023-07-24T07:21:57;20.40;99.90
10678;DHT22;5387;48.722;9.110;2023-07-24T07:24:24;20.50;99.90
10678;DHT22;5387;48.722;9.110;2023-07-24T07:26:52;20.50;99.90
10678;DHT22;5387;48.722;9.110;2023-07-24T07:29:19;20.60;99.90
10678;DHT22;5387;48.722;9.110;2023-07-24T07:31:46;20.50;99.90
10678;DHT22;5387;48.722;9.110;2023-07-24T07:34:12;20.40;99.90
10678;DHT22;5387;48.722;9.110;2023-07-24T07:36:39;20.50;99.90
10678;DHT22;5387;48.722;9.110;2023-07-24T07:39:06;20.40;99.90
10678;DHT22;5387;48.722;9.110;2023-07-24T07:41:33;20.50;99.90
10678;DHT22;5387;48.722;9.110;2023-07-24T07:44:01;20.70;99.90
10678;DHT22;5387;48.722;9.110;2023-07-24T07:46:28;20.90;99.90
10678;DHT22;5387;48.722;9.110;2023-07-24T07:48:54;21.00;99.90
10678;DHT22;5387;48.722;9.110;2023-07-24T07:51:21;21.00;99.90
10678;DHT22;5387;48.722;9.110;2023-07-24T07:53:51;21.00;99.90
10678;DHT22;5387;48.722;9.110;2023-07-24T07:56:17;21.10;99.90
10678;DHT22;5387;48.722;9.110;2023-07-24T07:58:44;21.00;99.90
10678;DHT22;5387;48.722;9.110;2023-07-24T08:01:12;20.90;99.90
10678;DHT22;5387;48.722;9.110;2023-07-24T08:03:39;20.60;99.90
10678;DHT22;5387;48.722;9.110;2023-07-24T08:06:06;20.50;99.90
10678;DHT22;5387;48.722;9.110;2023-07-24T08:08:33;20.50;99.90
10678;DHT22;5387;48.722;9.110;2023-07-24T08:11:04;20.30;99.90
10678;DHT22;5387;48.722;9.110;2023-07-24T08:13:31;20.10;99.90
10678;DHT22;5387;48.722;9.110;2023-07-24T08:15:57;19.70;99.90
10678;DHT22;5387;48.722;9.110;2023-07-24T08:18:26;19.50;99.90
10678;DHT22;5387;48.722;9.110;2023-07-24T08:20:53;19.30;99.90
10678;DHT22;5387;48.722;9.110;2023-07-24T08:23:19;19.00;99.90
10678;DHT22;5387;48.722;9.110;2023-07-24T08:25:52;18.70;99.90
10678;DHT22;5387;48.722;9.110;2023-07-24T08:28:19;18.40;99.90
10678;DHT22;5387;48.722;9.110;2023-07-24T08:30:50;18.30;99.90
10678;DHT22;5387;48.722;9.110;2023-07-24T08:33:22;18.20;99.90
10678;DHT22;5387;48.722;9.110;2023-07-24T08:35:59;18.20;99.90
10678;DHT22;5387;48.722;9.110;2023-07-24T08:38:26;18.30;99.90
10678;DHT22;5387;48.722;9.110;2023-07-24T08:41:00;18.30;99.90
10678;DHT22;5387;48.722;9.110;2023-07-24T08:43:29;18.20;99.90
10678;DHT22;5387;48.722;9.110;2023-07-24T08:45:57;18.20;99.90
10678;DHT22;5387;48.722;9.110;2023-07-24T08:48:25;18.30;99.90
10678;DHT22;5387;48.722;9.110;2023-07-24T08:50:53;18.30;99.90
10678;DHT22;5387;48.722;9.110;2023-07-24T08:53:21;18.30;99.90
10678;DHT22;5387;48.722;9.110;2023-07-24T08:55:48;18.40;99.90
10678;DHT22;5387;48.722;9.110;2023-07-24T08:58:15;18.50;99.90
10678;DHT22;5387;48.722;9.110;2023-07-24T09:00:42;18.70;99.90
10678;DHT22;5387;48.722;9.110;2023-07-24T09:03:08;18.90;99.90
10678;DHT22;5387;48.722;9.110;2023-07-24T09:05:35;18.90;99.90
10678;DHT22;5387;48.722;9.110;2023-07-24T09:08:02;18.90;99.90
10678;DHT22;5387;48.722;9.110;2023-07-24T09:10:30;19.10;99.90
10678;DHT22;5387;48.722;9.110;2023-07-24T09:12:57;19.10;99.90
10678;DHT22;5387;48.722;9.110;2023-07-24T09:15:24;19.40;99.90
10678;DHT22;5387;48.722;9.110;2023-07-24T09:17:52;19.70;99.90
10678;DHT22;5387;48.722;9.110;2023-07-24T09:20:19;19.60;99.90
10678;DHT22;5387;48.722;9.110;2023-07-24T09:22:49;19.90;99.90
10678;DHT22;5387;48.722;9.110;2023-07-24T09:25:16;20.40;99.90
10678;DHT22;5387;48.722;9.110;2023-07-24T09:27:44;20.30;99.90
10678;DHT22;5387;48.722;9.110;2023-07-24T09:30:14;20.30;99.90
10678;DHT22;5387;48.722;9.110;2023-07-24T09:32:42;20.30;99.90
10678;DHT22;5387;48.722;9.110;2023-07-24T09:35:16;20.10;99.90
10678;DHT22;5387;48.722;9.110;2023-07-24T09:37:44;20.10;99.90
10678;DHT22;5387;48.722;9.110;2023-07-24T09:40:13;20.10;99.90
10678;DHT22;5387;48.722;9.110;2023-07-24T09:42:40;20.10;99.90
10678;DHT22;5387;48.722;9.110;2023-07-24T09:45:09;20.00;99.90
10678;DHT22;5387;48.722;9.110;2023-07-24T09:47:38;20.10;99.90
10678;DHT22;5387;48.722;9.110;2023-07-24T09:50:06;20.10;99.90
10678;DHT22;5387;48.722;9.110;2023-07-24T09:52:37;20.10;99.90
10678;DHT22;5387;48.722;9.110;2023-07-24T09:55:11;20.00;99.90
10678;DHT22;5387;48.722;9.110;2023-07-24T09:57:38;20.10;99.90
10678;DHT22;5387;48.722;9.110;2023-07-24T10:00:06;20.00;99.90
10678;DHT22;5387;48.722;9.110;2023-07-24T10:02:35;20.20;99.90
10678;DHT22;5387;48.722;9.110;2023-07-24T10:05:03;20.10;99.90
10678;DHT22;5387;48.722;9.110;2023-07-24T10:07:31;20.00;99.90
10678;DHT22;5387;48.722;9.110;2023-07-24T10:09:58;20.00;99.90
10678;DHT22;5387;48.722;9.110;2023-07-24T10:12:25;20.00;99.90
10678;DHT22;5387;48.722;9.110;2023-07-24T10:14:55;19.90;99.90
10678;DHT22;5387;48.722;9.110;2023-07-24T10:17:35;19.80;99.90
10678;DHT22;5387;48.722;9.110;2023-07-24T10:20:04;19.80;99.90
10678;DHT22;5387;48.722;9.110;2023-07-24T10:22:30;19.80;99.90
10678;DHT22;5387;48.722;9.110;2023-07-24T10:24:57;19.70;99.90
10678;DHT22;5387;48.722;9.110;2023-07-24T10:27:24;19.60;99.90
10678;DHT22;5387;48.722;9.110;2023-07-24T10:29:58;19.40;99.90
10678;DHT22;5387;48.722;9.110;2023-07-24T10:32:25;19.30;99.90
10678;DHT22;5387;48.722;9.110;2023-07-24T10:35:06;19.10;99.90
10678;DHT22;5387;48.722;9.110;2023-07-24T10:37:34;18.90;99.90
10678;DHT22;5387;48.722;9.110;2023-07-24T10:40:01;18.80;99.90
10678;DHT22;5387;48.722;9.110;2023-07-24T10:42:30;18.60;99.90
10678;DHT22;5387;48.722;9.110;2023-07-24T10:45:04;18.30;99.90
10678;DHT22;5387;48.722;9.110;2023-07-24T10:47:31;18.40;99.90
10678;DHT22;5387;48.722;9.110;2023-07-24T10:49:59;18.30;99.90
10678;DHT22;5387;48.722;9.110;2023-07-24T10:52:29;18.20;99.90
10678;DHT22;5387;48.722;9.110;2023-07-24T10:54:56;18.10;99.90
10678;DHT22;5387;48.722;9.110;2023-07-24T10:57:26;17.90;99.90
10678;DHT22;5387;48.722;9.110;2023-07-24T10:59:53;18.00;99.90
10678;DHT22;5387;48.722;9.110;2023-07-24T11:02:20;17.80;99.90
10678;DHT22;5387;48.722;9.110;2023-07-24T11:04:46;17.70;99.90
10678;DHT22;5387;48.722;9.110;2023-07-24T11:07:15;17.60;99.90
10678;DHT22;5387;48.722;9.110;2023-07-24T11:09:42;17.60;99.90
10678;DHT22;5387;48.722;9.110;2023-07-24T11:12:11;17.60;99.90
10678;DHT22;5387;48.722;9.110;2023-07-24T11:14:46;17.50;99.90
10678;DHT22;5387;48.722;9.110;2023-07-24T11:17:14;17.50;99.90
10678;DHT22;5387;48.722;9.110;2023-07-24T11:19:40;17.60;99.90
10678;DHT22;5387;48.722;9.110;2023-07-24T11:22:07;17.50;99.90
10678;DHT22;5387;48.722;9.110;2023-07-24T11:24:43;17.50;99.90
10678;DHT22;5387;48.722;9.110;2023-07-24T11:27:13;17.50;99.90
10678;DHT22;5387;48.722;9.110;2023-07-24T11:29:40;17.60;99.90
10678;DHT22;5387;48.722;9.110;2023-07-24T11:32:07;17.60;99.90
10678;DHT22;5387;48.722;9.110;2023-07-24T11:34:35;17.90;99.90
10678;DHT22;5387;48.722;9.110;2023-07-24T11:37:01;18.10;99.90
10678;DHT22;5387;48.722;9.110;2023-07-24T11:39:28;18.40;99.90
10678;DHT22;5387;48.722;9.110;2023-07-24T11:41:57;18.80;99.90
10678;DHT22;5387;48.722;9.110;2023-07-24T11:44:26;19.70;99.90
10678;DHT22;5387;48.722;9.110;2023-07-24T11:47:00;20.10;99.90
10678;DHT22;5387;48.722;9.110;2023-07-24T11:49:28;20.20;99.90
10678;DHT22;5387;48.722;9.110;2023-07-24T11:51:59;19.50;99.90
10678;DHT22;5387;48.722;9.110;2023-07-24T11:54:26;19.00;99.90
10678;DHT22;5387;48.722;9.110;2023-07-24T11:56:53;18.50;99.90
10678;DHT22;5387;48.722;9.110;2023-07-24T11:59:21;18.30;99.90
10678;DHT22;5387;48.722;9.110;2023-07-24T12:01:48;18.30;99.90
10678;DHT22;5387;48.722;9.110;2023-07-24T12:04:15;18.30;99.90
10678;DHT22;5387;48.722;9.110;2023-07-24T12:06:42;18.50;99.90
10678;DHT22;5387;48.722;9.110;2023-07-24T12:09:11;18.50;99.90
10678;DHT22;5387;48.722;9.110;2023-07-24T12:11:41;18.90;99.90
10678;DHT22;5387;48.722;9.110;2023-07-24T12:14:08;19.30;99.90
10678;DHT22;5387;48.722;9.110;2023-07-24T12:16:36;19.60;99.90
10678;DHT22;5387;48.722;9.110;2023-07-24T12:19:04;19.80;99.90
10678;DHT22;5387;48.722;9.110;2023-07-24T12:21:31;19.50;99.90
10678;DHT22;5387;48.722;9.110;2023-07-24T12:23:58;19.60;99.90
10678;DHT22;5387;48.722;9.110;2023-07-24T12:26:25;19.80;99.90
10678;DHT22;5387;48.722;9.110;2023-07-24T12:28:53;19.70;99.90
10678;DHT22;5387;48.722;9.110;2023-07-24T12:31:20;20.30;99.90
10678;DHT22;5387;48.722;9.110;2023-07-24T12:33:48;20.50;99.90
10678;DHT22;5387;48.722;9.110;2023-07-24T12:36:14;20.40;99.90
10678;DHT22;5387;48.722;9.110;2023-07-24T12:38:42;20.30;99.90
10678;DHT22;5387;48.722;9.110;2023-07-24T12:41:09;20.20;99.90
10678;DHT22;5387;48.722;9.110;2023-07-24T12:43:35;20.10;99.90
10678;DHT22;5387;48.722;9.110;2023-07-24T12:46:02;20.20;99.90
10678;DHT22;5387;48.722;9.110;2023-07-24T12:48:29;20.40;99.90
10678;DHT22;5387;48.722;9.110;2023-07-24T12:50:58;20.70;99.90
10678;DHT22;5387;48.722;9.110;2023-07-24T12:53:26;21.40;99.90
10678;DHT22;5387;48.722;9.110;2023-07-24T12:55:53;22.10;99.90
10678;DHT22;5387;48.722;9.110;2023-07-24T12:58:20;22.70;99.90
10678;DHT22;5387;48.722;9.110;2023-07-24T13:00:46;22.50;99.90
10678;DHT22;5387;48.722;9.110;2023-07-24T13:03:13;22.50;99.90
10678;DHT22;5387;48.722;9.110;2023-07-24T13:05:40;22.00;99.90
10678;DHT22;5387;48.722;9.110;2023-07-24T13:08:08;22.30;99.90
10678;DHT22;5387;48.722;9.110;2023-07-24T13:10:35;22.80;99.90
10678;DHT22;5387;48.722;9.110;2023-07-24T13:13:02;23.70;99.90
10678;DHT22;5387;48.722;9.110;2023-07-24T13:15:28;23.10;99.90
10678;DHT22;5387;48.722;9.110;2023-07-24T13:17:57;23.80;99.90
10678;DHT22;5387;48.722;9.110;2023-07-24T13:20:24;24.50;99.90
10678;DHT22;5387;48.722;9.110;2023-07-24T13:22:51;25.10;99.90
10678;DHT22;5387;48.722;9.110;2023-07-24T13:25:19;25.30;99.90
10678;DHT22;5387;48.722;9.110;2023-07-24T13:27:46;26.60;99.90
10678;DHT22;5387;48.722;9.110;2023-07-24T13:30:13;25.40;99.90
10678;DHT22;5387;48.722;9.110;2023-07-24T13:32:40;25.30;99.90
10678;DHT22;5387;48.722;9.110;2023-07-24T13:35:07;24.60;99.90
10678;DHT22;5387;48.722;9.110;2023-07-24T13:37:34;24.30;99.90
10678;DHT22;5387;48.722;9.110;2023-07-24T13:40:01;24.10;99.90
10678;DHT22;5387;48.722;9.110;2023-07-24T13:42:29;23.80;99.90
10678;DHT22;5387;48.722;9.110;2023-07-24T13:44:56;23.40;99.90
10678;DHT22;5387;48.722;9.110;2023-07-24T13:47:22;23.30;99.90
10678;DHT22;5387;48.722;9.110;2023-07-24T13:49:49;23.00;99.90
10678;DHT22;5387;48.722;9.110;2023-07-24T13:52:16;22.90;99.90
10678;DHT22;5387;48.722;9.110;2023-07-24T13:54:43;22.90;99.90
10678;DHT22;5387;48.722;9.110;2023-07-24T13:57:09;23.20;99.90
10678;DHT22;5387;48.722;9.110;2023-07-24T13:59:38;23.20;99.90
10678;DHT22;5387;48.722;9.110;2023-07-24T14:02:05;23.00;99.90
10678;DHT22;5387;48.722;9.110;2023-07-24T14:04:32;23.00;99.90
10678;DHT22;5387;48.722;9.110;2023-07-24T14:06:59;23.20;99.90
10678;DHT22;5387;48.722;9.110;2023-07-24T14:09:25;22.80;99.90
10678;DHT22;5387;48.722;9.110;2023-07-24T14:11:52;22.80;99.90
10678;DHT22;5387;48.722;9.110;2023-07-24T14:14:19;22.90;99.90
10678;DHT22;5387;48.722;9.110;2023-07-24T14:16:48;23.00;99.90
10678;DHT22;5387;48.722;9.110;2023-07-24T14:19:14;23.10;99.90
10678;DHT22;5387;48.722;9.110;2023-07-24T14:21:41;23.70;99.90
10678;DHT22;5387;48.722;9.110;2023-07-24T14:24:08;23.70;99.90
10678;DHT22;5387;48.722;9.110;2023-07-24T14:26:35;23.20;99.90
10678;DHT22;5387;48.722;9.110;2023-07-24T14:29:03;23.30;99.90
10678;DHT22;5387;48.722;9.110;2023-07-24T14:31:30;22.90;99.90
10678;DHT22;5387;48.722;9.110;2023-07-24T14:33:58;22.60;99.90
10678;DHT22;5387;48.722;9.110;2023-07-24T14:36:24;22.40;99.90
10678;DHT22;5387;48.722;9.110;2023-07-24T14:38:53;22.50;99.90
10678;DHT22;5387;48.722;9.110;2023-07-24T14:41:20;22.60;99.90
10678;DHT22;5387;48.722;9.110;2023-07-24T14:43:46;22.60;99.90
10678;DHT22;5387;48.722;9.110;2023-07-24T14:46:13;22.80;99.90
10678;DHT22;5387;48.722;9.110;2023-07-24T14:48:40;22.90;99.90
10678;DHT22;5387;48.722;9.110;2023-07-24T14:51:08;22.90;99.90
10678;DHT22;5387;48.722;9.110;2023-07-24T14:53:35;23.20;99.90
10678;DHT22;5387;48.722;9.110;2023-07-24T14:56:02;23.20;99.90
10678;DHT22;5387;48.722;9.110;2023-07-24T14:58:28;23.50;99.90
10678;DHT22;5387;48.722;9.110;2023-07-24T15:00:55;23.40;99.90
10678;DHT22;5387;48.722;9.110;2023-07-24T15:03:22;23.30;99.90
10678;DHT22;5387;48.722;9.110;2023-07-24T15:05:49;23.20;99.90
10678;DHT22;5387;48.722;9.110;2023-07-24T15:08:18;23.10;99.90
10678;DHT22;5387;48.722;9.110;2023-07-24T15:10:45;23.20;99.90
10678;DHT22;5387;48.722;9.110;2023-07-24T15:13:12;23.00;99.90
10678;DHT22;5387;48.722;9.110;2023-07-24T15:15:39;23.10;99.90
10678;DHT22;5387;48.722;9.110;2023-07-24T15:18:05;23.00;99.90
10678;DHT22;5387;48.722;9.110;2023-07-24T15:20:32;22.80;99.90
10678;DHT22;5387;48.722;9.110;2023-07-24T15:22:59;22.70;99.90
10678;DHT22;5387;48.722;9.110;2023-07-24T15:25:27;22.70;99.90
10678;DHT22;5387;48.722;9.110;2023-07-24T15:27:54;22.40;99.90
10678;DHT22;5387;48.722;9.110;2023-07-24T15:30:20;22.20;99.90
10678;DHT22;5387;48.722;9.110;2023-07-24T15:32:47;21.80;99.90
10678;DHT22;5387;48.722;9.110;2023-07-24T15:35:14;21.60;99.90
10678;DHT22;5387;48.722;9.110;2023-07-24T15:37:41;21.50;99.90
10678;DHT22;5387;48.722;9.110;2023-07-24T15:40:09;21.40;99.90
10678;DHT22;5387;48.722;9.110;2023-07-24T15:42:38;21.20;99.90
10678;DHT22;5387;48.722;9.110;2023-07-24T15:45:05;21.20;99.90
10678;DHT22;5387;48.722;9.110;2023-07-24T15:47:32;21.20;99.90